Time;durP1;ratioP1;P1;durP2;ratioP2;P2;SDS_P1;SDS_P2;PMS_P1;PMS_P2;Temp;Humidity;BMP_temperature;BMP_pressure;BME280_temperature;BME280_humidity;BME280_pressure;Samples;Min_cycle;Max_cycle;Signal;HPM_P1;HPM_P2
2023/03/09 00:01:50;;;;;;;;;;;;;;;26.00;39.52;92468.16;4962071;28;9593;-60
2023/03/09 00:04:17;;;;;;;;;;;;;;;25.98;40.03;92467.25;4968558;28;7249;-60
2023/03/09 00:06:44;;;;;;;;;;;;;;;25.95;39.68;92482.88;4967086;28;8941;-61
2023/03/09 00:09:13;;;;;;;;;;;;;;;25.95;39.67;92471.13;4971189;28;9061;-60
2023/03/09 00:11:49;;;;;;;;;;;;;;;25.96;39.39;92469.84;4965573;28;9484;-61
2023/03/09 00:14:21;;;;;;;;;;;;;;;25.99;40.02;92463.22;4972498;28;7135;-61
2023/03/09 00:17:00;;;;;;;;;;;;;;;25.98;39.60;92465.25;4987865;28;7179;-60
2023/03/09 00:19:30;;;;;;;;;;;;;;;26.01;39.25;92458.59;4972879;28;9502;-61
2023/03/09 00:21:57;;;;;;;;;;;;;;;26.01;40.09;92447.56;4970887;28;7053;-61
2023/03/09 00:24:30;;;;;;;;;;;;;;;25.98;39.76;92445.97;4968741;28;9163;-61
2023/03/09 00:27:03;;;;;;;;;;;;;;;26.00;40.13;92446.13;4967097;28;9582;-60
2023/03/09 00:29:30;;;;;;;;;;;;;;;25.94;40.47;92447.63;4968711;28;9131;-60
2023/03/09 00:31:57;;;;;;;;;;;;;;;25.89;40.08;92449.31;4969014;28;9166;-60
2023/03/09 00:34:23;;;;;;;;;;;;;;;25.84;39.61;92446.75;4973012;28;7164;-60
2023/03/09 00:36:49;;;;;;;;;;;;;;;25.85;39.44;92437.94;4966476;28;8561;-61
2023/03/09 00:39:16;;;;;;;;;;;;;;;25.87;39.60;92443.63;4968796;28;6939;-60
2023/03/09 00:41:45;;;;;;;;;;;;;;;25.86;39.59;92444.91;4969941;28;7267;-61
2023/03/09 00:44:16;;;;;;;;;;;;;;;25.91;39.58;92446.72;4976105;28;9039;-60
2023/03/09 00:46:44;;;;;;;;;;;;;;;25.86;39.71;92461.44;4971311;28;8919;-60
2023/03/09 00:49:13;;;;;;;;;;;;;;;25.85;39.77;92457.22;4962844;28;8727;-60
2023/03/09 00:51:41;;;;;;;;;;;;;;;25.87;40.10;92459.41;4984055;28;7061;-60
2023/03/09 00:54:12;;;;;;;;;;;;;;;25.83;40.21;92446.03;4974090;28;7179;-61
2023/03/09 00:56:51;;;;;;;;;;;;;;;25.83;39.72;92451.56;4973342;28;7228;-61
2023/03/09 01:00:09;;;;;;;;;;;;;;;25.84;39.53;92457.78;4973114;28;7267;-61
2023/03/09 01:02:44;;;;;;;;;;;;;;;25.86;40.35;92455.22;4971989;28;8138;-60
2023/03/09 01:05:36;;;;;;;;;;;;;;;25.84;40.49;92461.25;4932409;28;9378;-60
2023/03/09 01:08:51;;;;;;;;;;;;;;;25.85;39.55;92471.00;4951674;28;9169;-61
2023/03/09 01:11:54;;;;;;;;;;;;;;;25.87;40.39;92468.41;4917520;29;9382;-60
2023/03/09 01:14:25;;;;;;;;;;;;;;;25.80;39.82;92458.16;4864053;29;9054;-61
2023/03/09 01:17:22;;;;;;;;;;;;;;;25.80;39.43;92463.66;4863123;29;8758;-60
2023/03/09 01:20:09;;;;;;;;;;;;;;;25.78;40.12;92466.25;4840117;29;7231;-60
2023/03/09 01:22:36;;;;;;;;;;;;;;;25.79;39.75;92476.00;4857829;29;9912;-60
2023/03/09 01:25:15;;;;;;;;;;;;;;;25.78;39.53;92469.00;4845740;29;7193;-60
2023/03/09 01:27:41;;;;;;;;;;;;;;;25.75;40.14;92461.13;4860104;29;7296;-60
2023/03/09 01:30:12;;;;;;;;;;;;;;;25.79;39.59;92467.72;4858357;29;9206;-60
2023/03/09 01:32:39;;;;;;;;;;;;;;;25.85;39.72;92451.72;4848640;29;9161;-61
2023/03/09 01:35:05;;;;;;;;;;;;;;;25.83;40.02;92453.56;4852184;29;8488;-60
2023/03/09 01:37:35;;;;;;;;;;;;;;;25.84;39.49;92449.50;4846247;29;7247;-60
2023/03/09 01:40:06;;;;;;;;;;;;;;;25.81;40.14;92464.41;4817511;29;8051;-60
2023/03/09 01:42:34;;;;;;;;;;;;;;;25.81;39.93;92459.63;4822682;29;7206;-61
2023/03/09 01:45:20;;;;;;;;;;;;;;;25.80;39.39;92446.41;4837733;29;7035;-60
2023/03/09 01:48:08;;;;;;;;;;;;;;;25.86;39.35;92447.66;4846740;29;9041;-61
2023/03/09 01:50:47;;;;;;;;;;;;;;;25.83;40.15;92450.81;4935395;29;7223;-60
2023/03/09 01:53:17;;;;;;;;;;;;;;;25.81;39.70;92453.41;4932463;29;9083;-60
2023/03/09 01:55:53;;;;;;;;;;;;;;;25.81;39.62;92443.13;4948724;28;7480;-60
2023/03/09 01:58:26;;;;;;;;;;;;;;;25.83;39.40;92459.81;4966405;28;7296;-60
2023/03/09 02:00:55;;;;;;;;;;;;;;;25.83;39.67;92445.31;4970347;28;7384;-61
2023/03/09 02:03:38;;;;;;;;;;;;;;;25.88;39.30;92463.66;4974652;28;8983;-61
2023/03/09 02:06:10;;;;;;;;;;;;;;;25.89;39.15;92452.06;4971069;28;7276;-60
2023/03/09 02:08:48;;;;;;;;;;;;;;;25.92;39.74;92442.69;4972739;28;8815;-60
2023/03/09 02:11:16;;;;;;;;;;;;;;;25.95;39.29;92441.56;4968111;28;8585;-61
2023/03/09 02:13:53;;;;;;;;;;;;;;;25.96;39.59;92450.56;4977634;28;7114;-60
2023/03/09 02:16:20;;;;;;;;;;;;;;;25.98;38.88;92436.97;4962638;28;9469;-60
2023/03/09 02:18:48;;;;;;;;;;;;;;;25.99;38.85;92443.94;4964938;28;7267;-60
2023/03/09 02:21:39;;;;;;;;;;;;;;;25.99;38.88;92468.72;4966868;28;8945;-61
2023/03/09 02:24:18;;;;;;;;;;;;;;;25.98;39.21;92495.53;4961419;28;8201;-61
2023/03/09 02:27:02;;;;;;;;;;;;;;;25.93;39.33;92493.72;4989305;28;8758;-61
2023/03/09 02:29:30;;;;;;;;;;;;;;;25.90;39.54;92486.56;5002357;28;9161;-60
2023/03/09 02:31:56;;;;;;;;;;;;;;;25.86;39.33;92486.22;4968190;28;9030;-61
2023/03/09 02:34:22;;;;;;;;;;;;;;;25.88;39.37;92488.44;4968963;28;9029;-61
2023/03/09 02:36:48;;;;;;;;;;;;;;;25.91;39.23;92493.56;4975863;28;9075;-60
2023/03/09 02:39:41;;;;;;;;;;;;;;;25.86;39.26;92507.53;4970357;28;8274;-60
2023/03/09 02:42:07;;;;;;;;;;;;;;;25.82;39.85;92516.16;4977681;28;7036;-60
2023/03/09 02:44:34;;;;;;;;;;;;;;;25.83;39.46;92498.38;4983798;28;7295;-60
2023/03/09 02:47:06;;;;;;;;;;;;;;;25.83;39.40;92492.88;4962442;28;7039;-60
2023/03/09 02:49:35;;;;;;;;;;;;;;;25.87;38.93;92489.72;4958898;28;9323;-61
2023/03/09 02:52:03;;;;;;;;;;;;;;;25.82;39.69;92482.38;4988380;28;7134;-61
2023/03/09 02:54:29;;;;;;;;;;;;;;;25.79;40.00;92472.50;4951985;28;7250;-61
2023/03/09 02:56:55;;;;;;;;;;;;;;;25.79;39.22;92456.72;4967286;28;7269;-61
2023/03/09 02:59:25;;;;;;;;;;;;;;;25.77;38.93;92459.28;4954356;28;9011;-60
2023/03/09 03:01:53;;;;;;;;;;;;;;;25.75;39.51;92461.13;4970397;28;7066;-61
2023/03/09 03:04:19;;;;;;;;;;;;;;;25.74;39.35;92471.41;4963561;28;9047;-60
2023/03/09 03:06:45;;;;;;;;;;;;;;;25.79;39.29;92453.97;4962019;28;7069;-60
2023/03/09 03:09:13;;;;;;;;;;;;;;;25.78;39.09;92493.78;4973462;28;8437;-60
2023/03/09 03:11:39;;;;;;;;;;;;;;;25.78;38.73;92515.09;4964796;28;9336;-60
2023/03/09 03:14:06;;;;;;;;;;;;;;;25.74;38.87;92514.72;4978305;28;8751;-60
2023/03/09 03:16:37;;;;;;;;;;;;;;;25.74;39.49;92514.72;4963609;28;9729;-61
2023/03/09 03:19:32;;;;;;;;;;;;;;;25.78;39.23;92529.59;4973421;28;9020;-60
2023/03/09 03:21:59;;;;;;;;;;;;;;;25.79;39.12;92528.31;4965485;28;9067;-60
2023/03/09 03:24:36;;;;;;;;;;;;;;;25.77;39.46;92521.91;4961465;28;7177;-61
2023/03/09 03:27:06;;;;;;;;;;;;;;;25.72;39.74;92512.53;4970923;28;7289;-61
2023/03/09 03:29:33;;;;;;;;;;;;;;;25.69;39.23;92499.13;4963082;28;7016;-60
2023/03/09 03:31:59;;;;;;;;;;;;;;;25.69;39.27;92519.16;4962487;28;8507;-60
2023/03/09 03:34:26;;;;;;;;;;;;;;;25.68;39.08;92516.97;4959836;28;7218;-60
2023/03/09 03:37:01;;;;;;;;;;;;;;;25.69;38.79;92515.66;4968912;28;8212;-60
2023/03/09 03:39:34;;;;;;;;;;;;;;;25.70;39.52;92528.16;4965084;28;9430;-60
2023/03/09 03:42:00;;;;;;;;;;;;;;;25.67;39.72;92510.72;4971033;28;7291;-61
2023/03/09 03:44:29;;;;;;;;;;;;;;;25.64;39.62;92517.34;4974041;28;7152;-60
2023/03/09 03:46:57;;;;;;;;;;;;;;;25.67;39.30;92532.00;4969460;28;9152;-60
2023/03/09 03:49:23;;;;;;;;;;;;;;;25.64;38.97;92522.88;4962871;28;8233;-60
2023/03/09 03:51:56;;;;;;;;;;;;;;;25.65;39.62;92523.56;4963685;28;9033;-60
2023/03/09 03:54:28;;;;;;;;;;;;;;;25.62;39.70;92508.91;4996546;28;8716;-61
2023/03/09 03:56:55;;;;;;;;;;;;;;;25.62;38.98;92508.19;4985779;28;7288;-60
2023/03/09 03:59:22;;;;;;;;;;;;;;;25.62;39.08;92511.66;4963352;28;9321;-61
2023/03/09 04:02:06;;;;;;;;;;;;;;;25.64;38.84;92522.13;4971289;28;8209;-60
2023/03/09 04:04:32;;;;;;;;;;;;;;;25.63;39.21;92524.13;4979849;28;9237;-60
2023/03/09 04:07:18;;;;;;;;;;;;;;;25.63;39.73;92535.16;4976156;28;9047;-60
2023/03/09 04:09:46;;;;;;;;;;;;;;;25.61;39.16;92532.22;4970422;28;7204;-61
2023/03/09 04:12:23;;;;;;;;;;;;;;;25.62;38.99;92517.16;4959459;28;9503;-60
2023/03/09 04:14:51;;;;;;;;;;;;;;;25.61;39.43;92523.22;5001762;28;7318;-61
2023/03/09 04:17:17;;;;;;;;;;;;;;;25.66;39.27;92519.53;4973811;28;7029;-60
2023/03/09 04:19:45;;;;;;;;;;;;;;;25.64;38.61;92522.88;4972739;28;7258;-60
2023/03/09 04:22:12;;;;;;;;;;;;;;;25.62;39.25;92525.41;4972848;28;9382;-61
2023/03/09 04:24:41;;;;;;;;;;;;;;;25.63;39.11;92537.16;4975896;28;8359;-60
2023/03/09 04:27:39;;;;;;;;;;;;;;;25.62;39.07;92547.44;4992868;28;7058;-61
2023/03/09 04:30:08;;;;;;;;;;;;;;;25.62;38.68;92555.69;4956143;28;8745;-60
2023/03/09 04:32:48;;;;;;;;;;;;;;;25.61;38.94;92548.00;4955622;28;7294;-61
2023/03/09 04:35:15;;;;;;;;;;;;;;;25.59;39.17;92567.84;4937076;28;8977;-61
2023/03/09 04:37:44;;;;;;;;;;;;;;;25.61;39.58;92592.06;4936914;28;7403;-60
2023/03/09 04:40:13;;;;;;;;;;;;;;;25.60;39.40;92594.06;4955250;28;7223;-60
2023/03/09 04:42:39;;;;;;;;;;;;;;;25.60;39.33;92605.06;4962358;28;9168;-60
2023/03/09 04:45:07;;;;;;;;;;;;;;;25.58;38.73;92593.19;4952212;28;8871;-60
2023/03/09 04:47:41;;;;;;;;;;;;;;;25.58;39.19;92590.41;4958196;28;7164;-61
2023/03/09 04:50:37;;;;;;;;;;;;;;;25.59;39.00;92595.38;4940019;28;9023;-60
2023/03/09 04:53:20;;;;;;;;;;;;;;;25.59;39.01;92603.63;4917313;29;7172;-61
2023/03/09 04:55:49;;;;;;;;;;;;;;;25.58;38.81;92609.69;4916982;29;7242;-61
2023/03/09 04:58:17;;;;;;;;;;;;;;;25.59;38.55;92631.16;4917604;29;9166;-60
2023/03/09 05:01:01;;;;;;;;;;;;;;;25.57;38.53;92619.97;4901747;29;7270;-61
2023/03/09 05:04:06;;;;;;;;;;;;;;;25.58;39.42;92640.69;4917287;29;7343;-60
2023/03/09 05:06:32;;;;;;;;;;;;;;;25.57;39.32;92644.75;4856402;29;7288;-61
2023/03/09 05:09:01;;;;;;;;;;;;;;;25.58;38.38;92662.72;4895057;29;8023;-61
2023/03/09 05:11:51;;;;;;;;;;;;;;;25.58;39.32;92678.53;4894964;29;9493;-60
2023/03/09 05:14:29;;;;;;;;;;;;;;;25.55;38.51;92690.63;4894875;29;9144;-60
2023/03/09 05:17:05;;;;;;;;;;;;;;;25.57;39.05;92710.81;4871527;29;8963;-61
2023/03/09 05:19:43;;;;;;;;;;;;;;;25.58;39.29;92711.56;4863898;29;9047;-61
2023/03/09 05:22:11;;;;;;;;;;;;;;;25.56;38.49;92727.84;4861060;29;7498;-61
2023/03/09 05:24:46;;;;;;;;;;;;;;;25.57;38.96;92740.34;4858022;29;7257;-60
2023/03/09 05:27:21;;;;;;;;;;;;;;;25.57;39.11;92763.13;4867471;29;7669;-61
2023/03/09 05:29:52;;;;;;;;;;;;;;;25.55;38.96;92762.19;4884392;29;7124;-60
2023/03/09 05:32:18;;;;;;;;;;;;;;;25.57;38.93;92774.13;4876718;29;6994;-61
2023/03/09 05:34:47;;;;;;;;;;;;;;;25.58;39.44;92781.09;4882888;29;7249;-61
2023/03/09 05:37:23;;;;;;;;;;;;;;;25.58;38.56;92785.88;4920408;28;7341;-60
2023/03/09 05:39:50;;;;;;;;;;;;;;;25.56;39.29;92810.44;4974750;28;7022;-61
2023/03/09 05:42:29;;;;;;;;;;;;;;;25.55;39.27;92820.75;4969973;28;9031;-61
2023/03/09 05:44:59;;;;;;;;;;;;;;;25.56;38.81;92846.25;4967406;28;7030;-61
2023/03/09 05:47:32;;;;;;;;;;;;;;;25.54;38.95;92854.31;4968830;28;9051;-61
2023/03/09 05:50:08;;;;;;;;;;;;;;;25.54;39.61;92885.34;4971476;28;8713;-60
2023/03/09 05:52:38;;;;;;;;;;;;;;;25.57;38.71;92903.53;4985498;28;7279;-60
2023/03/09 05:55:04;;;;;;;;;;;;;;;25.59;39.03;92906.47;4964366;28;8965;-60
2023/03/09 05:57:30;;;;;;;;;;;;;;;25.60;39.73;92918.94;4966918;28;7203;-60
2023/03/09 05:59:58;;;;;;;;;;;;;;;25.60;39.92;92929.25;4971041;28;7206;-60
2023/03/09 06:02:33;;;;;;;;;;;;;;;25.61;40.03;92947.22;4972207;28;7651;-60
2023/03/09 06:05:08;;;;;;;;;;;;;;;25.64;39.95;92946.88;4972689;28;9121;-60
2023/03/09 06:07:35;;;;;;;;;;;;;;;25.70;39.83;92922.66;4969529;28;7272;-60
2023/03/09 06:10:20;;;;;;;;;;;;;;;25.73;39.00;92942.88;4975683;28;7034;-61
2023/03/09 06:12:51;;;;;;;;;;;;;;;25.72;40.01;92933.88;4991763;28;8667;-60
2023/03/09 06:15:18;;;;;;;;;;;;;;;25.72;39.32;92944.88;4972305;28;7265;-61
2023/03/09 06:17:45;;;;;;;;;;;;;;;25.71;39.84;92948.91;4971944;28;7278;-60
2023/03/09 06:20:13;;;;;;;;;;;;;;;25.72;40.13;92958.66;4969481;28;8985;-59
2023/03/09 06:22:44;;;;;;;;;;;;;;;25.73;39.78;92964.91;4970868;28;7133;-60
2023/03/09 06:25:12;;;;;;;;;;;;;;;25.73;39.99;92957.34;4969212;28;7048;-60
2023/03/09 06:27:41;;;;;;;;;;;;;;;25.74;39.98;92955.34;4987260;28;7138;-60
2023/03/09 06:30:10;;;;;;;;;;;;;;;25.74;40.10;92955.34;4970566;28;9156;-59
2023/03/09 06:32:36;;;;;;;;;;;;;;;25.78;39.86;92972.97;4967965;28;7234;-60
2023/03/09 06:35:02;;;;;;;;;;;;;;;25.81;39.10;92976.66;4978905;28;9011;-60
2023/03/09 06:37:28;;;;;;;;;;;;;;;25.81;39.16;92976.66;4973479;28;7420;-61
2023/03/09 06:39:56;;;;;;;;;;;;;;;25.81;40.02;92982.91;4969987;28;7992;-61
2023/03/09 06:42:25;;;;;;;;;;;;;;;25.81;39.06;92966.38;4983586;28;8780;-60
2023/03/09 06:44:52;;;;;;;;;;;;;;;25.78;39.22;92966.72;4967876;28;7343;-61
2023/03/09 06:47:19;;;;;;;;;;;;;;;25.74;39.00;92969.09;4964880;28;7242;-61
2023/03/09 06:50:01;;;;;;;;;;;;;;;25.72;39.53;92985.44;4972398;28;7063;-61
2023/03/09 06:52:29;;;;;;;;;;;;;;;25.71;39.69;92992.25;4971159;28;9075;-61
2023/03/09 06:54:54;;;;;;;;;;;;;;;25.67;39.91;93005.59;4965196;28;7272;-61
2023/03/09 06:57:23;;;;;;;;;;;;;;;25.66;39.85;93009.66;4988997;28;7035;-61
2023/03/09 06:59:51;;;;;;;;;;;;;;;25.66;39.81;93023.44;4974579;28;8496;-61
2023/03/09 07:02:24;;;;;;;;;;;;;;;25.63;39.45;93016.97;4971422;28;7225;-61
2023/03/09 07:04:53;;;;;;;;;;;;;;;25.64;39.93;93012.97;4970813;28;7260;-61
2023/03/09 07:07:26;;;;;;;;;;;;;;;25.68;39.17;93024.34;4971379;28;7203;-61
2023/03/09 07:10:05;;;;;;;;;;;;;;;25.72;38.97;93030.25;4983952;28;7179;-61
2023/03/09 07:13:03;;;;;;;;;;;;;;;25.76;39.57;93024.38;4962464;28;7854;-61
2023/03/09 07:15:47;;;;;;;;;;;;;;;25.73;40.05;93031.72;4985908;28;7579;-61
2023/03/09 07:18:21;;;;;;;;;;;;;;;25.71;39.46;93030.81;4969318;28;9506;-61
2023/03/09 07:20:47;;;;;;;;;;;;;;;25.71;39.40;93030.81;4967424;28;9280;-61
2023/03/09 07:23:15;;;;;;;;;;;;;;;25.68;39.77;93040.88;4969040;28;7055;-60
2023/03/09 07:25:43;;;;;;;;;;;;;;;25.68;39.64;93053.91;4970322;28;7296;-60
2023/03/09 07:28:09;;;;;;;;;;;;;;;25.67;40.27;93050.41;4970562;28;7261;-60
2023/03/09 07:30:37;;;;;;;;;;;;;;;25.70;39.76;93049.34;4968447;28;9638;-59
2023/03/09 07:33:06;;;;;;;;;;;;;;;25.69;39.69;93049.84;4968147;28;7290;-60
2023/03/09 07:35:34;;;;;;;;;;;;;;;25.69;39.63;93049.84;4964956;28;7672;-60
2023/03/09 07:38:02;;;;;;;;;;;;;;;25.72;40.38;93052.28;4973106;28;7024;-59
2023/03/09 07:40:31;;;;;;;;;;;;;;;25.71;39.88;93056.31;4976841;28;7281;-60
2023/03/09 07:42:59;;;;;;;;;;;;;;;25.71;40.69;93059.06;4968985;28;8949;-60
2023/03/09 07:45:46;;;;;;;;;;;;;;;25.70;39.90;93054.84;4972730;28;7036;-60
2023/03/09 07:48:12;;;;;;;;;;;;;;;25.70;40.12;93057.59;4965920;28;9057;-60
2023/03/09 07:50:42;;;;;;;;;;;;;;;25.73;40.28;93061.28;4960355;28;7265;-60
2023/03/09 07:53:09;;;;;;;;;;;;;;;25.71;40.44;93070.06;4971419;28;9341;-61
2023/03/09 07:55:35;;;;;;;;;;;;;;;25.73;40.29;93067.50;4972706;28;7295;-60
2023/03/09 07:58:08;;;;;;;;;;;;;;;25.76;40.46;93051.91;4968845;28;8675;-60
2023/03/09 08:00:59;;;;;;;;;;;;;;;25.80;40.53;93069.56;4969920;28;6859;-60
2023/03/09 08:03:26;;;;;;;;;;;;;;;25.81;39.74;93049.03;4968858;28;9137;-60
2023/03/09 08:05:55;;;;;;;;;;;;;;;25.83;40.72;93056.72;4969483;28;9228;-60
2023/03/09 08:08:25;;;;;;;;;;;;;;;25.84;39.91;93075.47;4970350;28;7096;-60
2023/03/09 08:11:00;;;;;;;;;;;;;;;25.87;40.35;93057.84;4970120;28;9223;-60
2023/03/09 08:13:56;;;;;;;;;;;;;;;25.88;39.70;93073.09;4968765;28;8705;-60
2023/03/09 08:16:33;;;;;;;;;;;;;;;25.89;39.90;93080.09;4936573;28;7611;-60
2023/03/09 08:19:00;;;;;;;;;;;;;;;25.91;40.42;93080.28;4967464;28;7592;-60
2023/03/09 08:21:27;;;;;;;;;;;;;;;25.93;40.76;93072.19;4968942;28;9232;-60
2023/03/09 08:23:57;;;;;;;;;;;;;;;25.97;39.30;93077.34;4957762;28;7398;-60
2023/03/09 08:26:22;;;;;;;;;;;;;;;26.00;39.79;93070.75;4966441;28;7056;-61
2023/03/09 08:28:49;;;;;;;;;;;;;;;26.01;40.41;93078.47;4944488;28;7355;-60
2023/03/09 08:31:18;;;;;;;;;;;;;;;26.04;39.93;93093.19;4966149;28;7624;-60
2023/03/09 08:33:55;;;;;;;;;;;;;;;26.03;39.92;93086.22;4957571;28;9582;-60
2023/03/09 08:36:23;;;;;;;;;;;;;;;26.03;39.41;93097.22;4942073;28;7851;-61
2023/03/09 08:39:08;;;;;;;;;;;;;;;26.04;39.68;93099.44;4962257;28;9426;-60
2023/03/09 08:41:34;;;;;;;;;;;;;;;26.07;39.44;93109.38;4957515;28;7248;-60
2023/03/09 08:44:30;;;;;;;;;;;;;;;26.07;39.44;93120.41;4951026;28;8988;-60
2023/03/09 08:47:02;;;;;;;;;;;;;;;26.05;40.09;93120.22;4894650;29;7018;-60
2023/03/09 08:49:40;;;;;;;;;;;;;;;26.03;39.81;93119.28;4893247;29;7026;-59
2023/03/09 08:52:10;;;;;;;;;;;;;;;26.04;40.47;93115.97;4898598;29;9437;-60
2023/03/09 08:54:36;;;;;;;;;;;;;;;26.01;40.33;93111.53;4901420;29;7003;-59
2023/03/09 08:57:04;;;;;;;;;;;;;;;26.07;40.46;93117.66;4901219;29;7257;-60
2023/03/09 08:59:32;;;;;;;;;;;;;;;26.06;39.88;93118.91;4919203;29;7068;-60
2023/03/09 09:02:00;;;;;;;;;;;;;;;26.10;39.69;93107.56;4914355;29;7341;-60
2023/03/09 09:04:26;;;;;;;;;;;;;;;26.07;40.24;93112.13;4898358;29;7465;-60
2023/03/09 09:06:54;;;;;;;;;;;;;;;26.05;39.79;93111.94;4918767;29;7070;-60
2023/03/09 09:09:20;;;;;;;;;;;;;;;26.09;40.12;93117.88;4916225;29;9365;-60
2023/03/09 09:12:19;;;;;;;;;;;;;;;26.14;39.33;93114.19;4917036;29;9481;-60
2023/03/09 09:14:50;;;;;;;;;;;;;;;26.14;39.75;93113.47;4893478;29;7204;-60
2023/03/09 09:17:26;;;;;;;;;;;;;;;26.14;39.71;93113.47;4908693;29;7634;-60
2023/03/09 09:19:59;;;;;;;;;;;;;;;26.16;39.56;93111.63;4899715;29;7322;-60
2023/03/09 09:22:26;;;;;;;;;;;;;;;26.19;39.66;93114.59;4919217;28;7604;-60
2023/03/09 09:24:53;;;;;;;;;;;;;;;26.12;40.11;93111.25;4954633;28;7110;-61
2023/03/09 09:27:19;;;;;;;;;;;;;;;26.13;39.37;93118.25;4954506;28;7028;-60
2023/03/09 09:29:48;;;;;;;;;;;;;;;26.11;39.52;93109.78;4955330;28;7035;-61
2023/03/09 09:32:25;;;;;;;;;;;;;;;26.12;40.21;93110.53;4973752;28;7040;-62
2023/03/09 09:35:07;;;;;;;;;;;;;;;26.10;39.92;93102.06;4968986;28;7139;-61
2023/03/09 09:37:35;;;;;;;;;;;;;;;26.10;39.43;93102.06;4971628;28;8774;-61
2023/03/09 09:40:10;;;;;;;;;;;;;;;26.11;39.83;93104.28;4970595;28;7288;-61
2023/03/09 09:42:56;;;;;;;;;;;;;;;26.12;40.30;93100.22;4958087;28;8543;-61
2023/03/09 09:45:35;;;;;;;;;;;;;;;26.12;39.57;93094.72;4968937;28;7340;-61
2023/03/09 09:48:06;;;;;;;;;;;;;;;26.14;39.83;93092.16;4957584;28;7299;-62
2023/03/09 09:51:09;;;;;;;;;;;;;;;26.14;39.87;93086.63;4972758;28;8972;-62
2023/03/09 09:54:11;;;;;;;;;;;;;;;26.15;39.32;93076.34;4916010;29;9131;-60
2023/03/09 09:56:59;;;;;;;;;;;;;;;26.13;40.11;93076.16;4901351;29;7283;-60
2023/03/09 09:59:44;;;;;;;;;;;;;;;26.16;39.79;93066.81;4916524;29;9160;-61
2023/03/09 10:03:06;;;;;;;;;;;;;;;26.20;39.69;93069.94;4893167;29;7134;-60
2023/03/09 10:05:55;;;;;;;;;;;;;;;26.21;39.83;93068.66;4874931;29;7490;-60
2023/03/09 10:09:11;;;;;;;;;;;;;;;26.23;39.28;93074.34;4869544;29;9543;-60
2023/03/09 10:11:49;;;;;;;;;;;;;;;26.26;39.62;93067.03;4876755;29;7134;-60
2023/03/09 10:14:27;;;;;;;;;;;;;;;26.26;39.07;93083.56;4869630;29;8942;-60
2023/03/09 10:17:18;;;;;;;;;;;;;;;26.29;39.81;93079.72;4860046;29;8746;-61
2023/03/09 10:20:21;;;;;;;;;;;;;;;26.31;39.52;93075.13;4857346;29;7106;-60
2023/03/09 10:23:29;;;;;;;;;;;;;;;26.33;39.36;93085.59;4863840;29;7469;-60
2023/03/09 10:26:38;;;;;;;;;;;;;;;26.33;39.83;93080.84;4821906;29;7158;-60
2023/03/09 10:29:44;;;;;;;;;;;;;;;26.34;39.17;93087.09;4819106;29;7032;-60
2023/03/09 10:32:54;;;;;;;;;;;;;;;26.36;38.94;93079.72;4871219;29;7575;-60
2023/03/09 10:35:39;;;;;;;;;;;;;;;26.36;38.80;93095.56;4871945;29;7082;-60
2023/03/09 10:38:23;;;;;;;;;;;;;;;26.37;38.78;93097.00;4869462;29;7464;-60
2023/03/09 10:41:16;;;;;;;;;;;;;;;26.36;39.21;93107.28;4911736;29;7279;-60
2023/03/09 10:43:45;;;;;;;;;;;;;;;26.38;38.90;93098.50;4901323;29;7029;-60
2023/03/09 10:50:09;;;;;;;;;;;;;;;26.40;39.31;93112.47;4913224;29;7471;-60
2023/03/09 10:52:51;;;;;;;;;;;;;;;26.40;39.32;93101.44;4909321;29;7352;-60
2023/03/09 10:55:35;;;;;;;;;;;;;;;26.39;38.79;93100.69;4899419;29;9048;-60
2023/03/09 10:58:28;;;;;;;;;;;;;;;26.43;39.08;93103.09;4897509;29;8957;-60
2023/03/09 11:01:04;;;;;;;;;;;;;;;26.42;38.43;93094.09;4960146;28;10083;-60
2023/03/09 11:04:01;;;;;;;;;;;;;;;26.45;38.43;93093.00;4969132;28;9046;-61
2023/03/09 11:06:42;;;;;;;;;;;;;;;26.43;38.38;93090.03;4963633;28;7435;-60
2023/03/09 11:10:06;;;;;;;;;;;;;;;26.45;39.06;93095.00;4996505;28;9043;-60
2023/03/09 11:12:47;;;;;;;;;;;;;;;26.43;38.50;93084.53;4971099;28;9072;-60
2023/03/09 11:15:15;;;;;;;;;;;;;;;26.48;38.92;93082.88;4995552;28;7142;-61
2023/03/09 11:18:20;;;;;;;;;;;;;;;26.47;38.44;93090.41;4972986;28;6973;-60
2023/03/09 11:20:54;;;;;;;;;;;;;;;26.46;39.28;93085.47;4993223;28;7212;-60
2023/03/09 11:23:35;;;;;;;;;;;;;;;26.44;38.33;93075.00;4969108;28;7327;-61
2023/03/09 11:26:27;;;;;;;;;;;;;;;26.47;38.63;93076.63;4960112;28;7065;-60
2023/03/09 11:29:11;;;;;;;;;;;;;;;26.48;38.95;93071.88;4976173;28;7029;-61
2023/03/09 11:31:43;;;;;;;;;;;;;;;26.47;39.34;93067.66;4972860;28;9756;-59
2023/03/09 11:34:24;;;;;;;;;;;;;;;26.51;38.55;93065.25;4971716;28;7081;-59
2023/03/09 11:37:11;;;;;;;;;;;;;;;26.50;39.14;93050.00;4970921;28;8711;-59
2023/03/09 11:40:06;;;;;;;;;;;;;;;26.53;38.78;93054.41;4984481;28;9537;-60
2023/03/09 11:42:58;;;;;;;;;;;;;;;26.52;39.64;93066.72;4923885;28;7278;-59
2023/03/09 11:45:29;;;;;;;;;;;;;;;26.54;39.03;93069.66;4933699;28;7117;-60
2023/03/09 11:48:50;;;;;;;;;;;;;;;26.54;39.21;93069.66;4941846;28;7268;-60
2023/03/09 11:51:44;;;;;;;;;;;;;;;26.55;39.71;93076.66;4930953;28;9076;-59
2023/03/09 11:54:18;;;;;;;;;;;;;;;26.56;39.31;93072.59;4945159;28;9067;-59
2023/03/09 11:56:49;;;;;;;;;;;;;;;26.56;39.25;93058.81;4944733;28;7475;-60
2023/03/09 11:59:51;;;;;;;;;;;;;;;26.57;39.12;93057.53;4931145;28;7320;-59
2023/03/09 12:02:52;;;;;;;;;;;;;;;26.58;39.35;93057.00;4946786;29;7019;-60
2023/03/09 12:05:19;;;;;;;;;;;;;;;26.58;39.38;93057.00;4931006;29;7271;-59
2023/03/09 12:07:59;;;;;;;;;;;;;;;26.58;39.48;93045.22;4935444;29;7000;-60
2023/03/09 12:10:37;;;;;;;;;;;;;;;26.59;39.28;93066.75;4927441;29;8823;-60
2023/03/09 12:13:37;;;;;;;;;;;;;;;26.60;39.70;93059.94;4927298;29;9453;-60
2023/03/09 12:16:38;;;;;;;;;;;;;;;26.63;39.46;93055.34;4937573;29;7258;-60
2023/03/09 12:19:17;;;;;;;;;;;;;;;26.65;38.96;93050.00;4939063;28;7031;-61
2023/03/09 12:22:25;;;;;;;;;;;;;;;26.66;39.55;93059.78;4963813;28;9019;-60
2023/03/09 12:25:03;;;;;;;;;;;;;;;26.68;39.47;93060.69;4933240;29;9060;-60
2023/03/09 12:27:56;;;;;;;;;;;;;;;26.69;39.15;93061.41;4947430;28;8692;-59
2023/03/09 12:30:32;;;;;;;;;;;;;;;26.66;39.04;93057.00;4951520;28;9315;-59
2023/03/09 12:33:10;;;;;;;;;;;;;;;26.68;38.86;93059.97;4930680;28;7296;-59
2023/03/09 12:35:42;;;;;;;;;;;;;;;26.68;38.47;93046.16;4927131;28;7055;-59
2023/03/09 12:38:27;;;;;;;;;;;;;;;26.71;38.68;93047.81;4943970;28;9389;-59
2023/03/09 12:40:58;;;;;;;;;;;;;;;26.70;38.99;93052.59;4941832;28;7267;-59
2023/03/09 12:43:26;;;;;;;;;;;;;;;26.72;38.99;93050.03;4934635;28;7018;-59
2023/03/09 12:45:52;;;;;;;;;;;;;;;26.75;38.44;93048.94;4945000;28;9441;-58
2023/03/09 12:48:38;;;;;;;;;;;;;;;26.75;39.08;93037.91;4924406;29;7352;-59
2023/03/09 12:51:20;;;;;;;;;;;;;;;26.74;38.92;93032.94;4932209;28;9011;-60
2023/03/09 12:54:04;;;;;;;;;;;;;;;26.77;39.10;93031.88;4936878;28;8944;-59
2023/03/09 12:56:33;;;;;;;;;;;;;;;26.79;39.31;93027.28;4991612;28;9065;-59
2023/03/09 12:59:11;;;;;;;;;;;;;;;26.80;38.91;93039.03;4972986;28;9028;-60
2023/03/09 13:01:41;;;;;;;;;;;;;;;26.81;39.14;93027.44;4969472;28;8627;-59
2023/03/09 13:04:23;;;;;;;;;;;;;;;26.80;38.70;93017.69;4974003;28;9396;-59
2023/03/09 13:07:00;;;;;;;;;;;;;;;26.86;38.88;93015.47;4978438;28;7095;-59
2023/03/09 13:09:39;;;;;;;;;;;;;;;26.88;39.37;93020.47;4967878;28;7242;-60
2023/03/09 13:12:13;;;;;;;;;;;;;;;26.90;39.00;93007.56;4977046;28;9151;-59
2023/03/09 13:14:40;;;;;;;;;;;;;;;26.92;38.54;93005.00;4979098;28;9586;-60
2023/03/09 13:17:22;;;;;;;;;;;;;;;26.95;38.63;93008.66;4974435;28;7303;-59
2023/03/09 13:19:55;;;;;;;;;;;;;;;26.97;38.92;93003.34;4982558;28;8731;-60
2023/03/09 13:22:24;;;;;;;;;;;;;;;26.96;38.78;93001.88;4997340;28;7910;-59
2023/03/09 13:25:22;;;;;;;;;;;;;;;26.99;38.73;93005.56;4968153;28;7250;-60
2023/03/09 13:28:08;;;;;;;;;;;;;;;27.00;38.85;92995.97;4972076;28;8698;-60
2023/03/09 13:30:40;;;;;;;;;;;;;;;27.00;38.26;93007.75;4962268;28;9546;-60
2023/03/09 13:33:17;;;;;;;;;;;;;;;27.03;38.30;92995.63;4966965;28;9028;-60
2023/03/09 13:36:11;;;;;;;;;;;;;;;27.16;38.85;92984.38;4972175;28;7145;-60
2023/03/09 13:38:43;;;;;;;;;;;;;;;27.23;38.60;92986.38;4963447;28;7299;-60
2023/03/09 13:41:28;;;;;;;;;;;;;;;27.31;38.02;92986.38;4959785;28;7256;-61
2023/03/09 13:43:56;;;;;;;;;;;;;;;27.40;37.87;92983.06;4996182;28;8951;-61
2023/03/09 13:46:30;;;;;;;;;;;;;;;27.37;37.50;92979.38;4969884;28;9029;-60
2023/03/09 13:49:07;;;;;;;;;;;;;;;27.34;38.21;92983.22;4974885;28;7274;-60